createdAt,value
2016-05-12T00:00:44.604Z,61.88
2016-05-12T00:01:44.591Z,61.79
2016-05-12T00:02:44.563Z,61.72
2016-05-12T00:03:44.566Z,61.24
2016-05-12T00:04:44.536Z,61.24
2016-05-12T00:05:44.508Z,61.15
2016-05-12T00:06:44.494Z,61.34
2016-05-12T00:07:44.466Z,61.43
2016-05-12T00:08:44.454Z,61.43
2016-05-12T00:09:44.424Z,61.24
2016-05-12T00:10:44.413Z,61.34
2016-05-12T00:11:44.383Z,61.15
2016-05-12T00:12:44.371Z,61.34
2016-05-12T00:13:44.343Z,60.76
2016-05-12T00:14:44.345Z,61.05
2016-05-12T00:15:44.316Z,61.05
2016-05-12T00:16:44.287Z,60.76
2016-05-12T00:17:44.274Z,61.24
2016-05-12T00:18:44.246Z,61.05
2016-05-12T00:19:44.218Z,61.43
2016-05-12T00:20:44.048Z,61.43
2016-05-12T00:21:44.176Z,61.5
2016-05-12T00:22:44.178Z,61.15
2016-05-12T00:23:44.151Z,61.15
2016-05-12T00:24:44.123Z,61.15
2016-05-12T00:25:44.109Z,61.63
2016-05-12T00:26:44.080Z,61.6
2016-05-12T00:27:44.067Z,61.6
2016-05-12T00:28:44.053Z,61.69
2016-05-12T00:29:43.869Z,61.69
2016-05-12T00:30:43.997Z,61.98
2016-05-12T00:31:44.000Z,61.5
2016-05-12T00:32:43.956Z,61.21
2016-05-12T00:33:43.942Z,61.6
2016-05-12T00:34:43.930Z,61.02
2016-05-12T00:35:43.917Z,61.11
2016-05-12T00:36:43.888Z,61.6
2016-05-12T00:37:43.875Z,62.17
2016-05-12T00:38:43.831Z,61.6
2016-05-12T00:39:43.819Z,61.88
2016-05-12T00:40:43.805Z,61.69
2016-05-12T00:41:43.793Z,61.31
2016-05-12T00:42:43.763Z,61.79
2016-05-12T00:43:43.735Z,61.69
2016-05-12T00:44:43.721Z,61.88
2016-05-12T00:45:43.693Z,61.98
2016-05-12T00:46:43.682Z,62.17
2016-05-12T00:47:43.668Z,62.46
2016-05-12T00:48:43.640Z,62.65
2016-05-12T00:49:43.470Z,61.79
2016-05-12T00:50:43.598Z,62.65
2016-05-12T00:51:43.569Z,62.55
2016-05-12T00:52:43.556Z,61.79
2016-05-12T00:53:43.543Z,62.17
2016-05-12T00:54:43.515Z,62.36
2016-05-12T00:55:43.501Z,62.84
2016-05-12T00:56:43.489Z,62.55
2016-05-12T00:57:43.304Z,62.84
2016-05-12T00:58:43.276Z,62.93
2016-05-12T00:59:43.419Z,62.46
2016-05-12T01:00:43.389Z,62.65
2016-05-12T01:01:43.503Z,62.55
2016-05-12T01:02:43.350Z,62.84
2016-05-12T01:03:43.336Z,62.84
2016-05-12T01:04:43.322Z,62.55
2016-05-12T01:05:43.513Z,61.6
2016-05-12T01:06:43.281Z,62.46
2016-05-12T01:07:43.238Z,61.79
2016-05-12T01:08:43.225Z,61.79
2016-05-12T01:09:43.211Z,61.79
2016-05-12T01:10:43.183Z,62.55
2016-05-12T01:11:43.169Z,62.65
2016-05-12T01:12:43.141Z,62.36
2016-05-12T01:13:43.129Z,62.74
2016-05-12T01:14:43.100Z,62.65
2016-05-12T01:15:43.088Z,62.55
2016-05-12T01:16:43.449Z,62.9
2016-05-12T01:17:43.045Z,63.1
2016-05-12T01:18:43.017Z,63
2016-05-12T01:19:43.004Z,63.19
2016-05-12T01:20:42.818Z,63.29
2016-05-12T01:21:42.963Z,63.29
2016-05-12T01:22:42.934Z,63
2016-05-12T01:23:42.937Z,63.57
2016-05-12T01:24:42.893Z,63.32
2016-05-12T01:25:42.879Z,63.19
2016-05-12T01:26:42.882Z,63
2016-05-12T01:27:42.869Z,62.9
2016-05-12T01:28:42.809Z,63
2016-05-12T01:29:42.797Z,63
2016-05-12T01:30:42.784Z,63.39
2016-05-12T01:31:42.755Z,63.39
2016-05-12T01:32:42.742Z,63.39
2016-05-12T01:33:42.557Z,63.19
2016-05-12T01:34:42.700Z,63
2016-05-12T01:35:42.672Z,62.81
2016-05-12T01:36:42.659Z,62.52
2016-05-12T01:37:42.631Z,62.84
2016-05-12T01:38:42.602Z,62.55
2016-05-12T01:39:42.589Z,63.22
2016-05-12T01:40:42.560Z,63.03
2016-05-12T01:41:42.548Z,63.39
2016-05-12T01:42:42.535Z,63.1
2016-05-12T01:43:42.505Z,63.29
2016-05-12T01:44:42.493Z,63.67
2016-05-12T01:45:42.465Z,64.05
2016-05-12T01:46:42.655Z,63.57
2016-05-12T01:47:42.423Z,63.57
2016-05-12T01:48:42.410Z,63.96
2016-05-12T01:49:42.382Z,64.25
2016-05-12T01:50:42.368Z,64.34
2016-05-12T01:51:42.340Z,64.63
2016-05-12T01:52:42.312Z,64.63
2016-05-12T01:53:42.298Z,64.25
2016-05-12T01:54:42.285Z,64.53
2016-05-12T01:55:42.257Z,64.72
2016-05-12T01:56:42.245Z,64.34
2016-05-12T01:57:42.231Z,65.2
2016-05-12T01:58:42.203Z,64.72
2016-05-12T01:59:42.174Z,65.01
2016-05-12T02:00:42.161Z,64.82
2016-05-12T02:01:42.382Z,64.92
2016-05-12T02:02:42.119Z,65.01
2016-05-12T02:03:41.935Z,65.3
2016-05-12T02:04:42.078Z,64.92
2016-05-12T02:05:42.049Z,65.3
2016-05-12T02:06:42.036Z,65.2
2016-05-12T02:07:42.008Z,65.01
2016-05-12T02:08:41.980Z,65.2
2016-05-12T02:09:41.966Z,64.92
2016-05-12T02:10:41.969Z,65.2
2016-05-12T02:11:41.925Z,65.78
2016-05-12T02:12:41.912Z,65.3
2016-05-12T02:13:41.883Z,65.3
2016-05-12T02:14:41.871Z,65.58
2016-05-12T02:15:41.841Z,66.25
2016-05-12T02:16:41.830Z,65.97
2016-05-12T02:17:41.801Z,65.97
2016-05-12T02:18:41.771Z,66.25
2016-05-12T02:19:41.760Z,66.35
2016-05-12T02:20:41.746Z,66.06
2016-05-12T02:21:41.577Z,67.21
2016-05-12T02:22:41.689Z,66.51
2016-05-12T02:23:41.520Z,67.11
2016-05-12T02:24:41.648Z,67.76
2016-05-12T02:25:41.635Z,67.56
2016-05-12T02:26:41.450Z,67.47
2016-05-12T02:27:41.593Z,67.37
2016-05-12T02:28:41.564Z,67.85
2016-05-12T02:29:41.551Z,67.76
2016-05-12T02:30:41.367Z,68.04
2016-05-12T02:31:41.354Z,68.42
2016-05-12T02:32:41.498Z,68.62
2016-05-12T02:33:41.484Z,68.62
2016-05-12T02:34:41.455Z,68.62
2016-05-12T02:35:41.428Z,68.8
2016-05-12T02:36:41.398Z,68.52
2016-05-12T02:37:41.369Z,68.8
2016-05-12T02:38:41.358Z,68.8
2016-05-12T02:39:41.344Z,69
2016-05-12T02:40:41.316Z,69.48
2016-05-12T02:41:41.287Z,69.38
2016-05-12T02:42:41.289Z,69.76
2016-05-12T02:43:41.261Z,69.73
2016-05-12T02:44:41.232Z,70.11
2016-05-12T02:45:41.204Z,69.82
2016-05-12T02:46:41.207Z,70.43
2016-05-12T02:47:41.163Z,70.4
2016-05-12T02:48:41.149Z,70.78
2016-05-12T02:49:40.965Z,70.78
2016-05-12T02:50:41.108Z,70.87
2016-05-12T02:51:41.080Z,70.97
2016-05-12T02:52:41.051Z,70.87
2016-05-12T02:53:40.882Z,71.55
2016-05-12T02:54:41.040Z,71.07
2016-05-12T02:55:40.996Z,70.87
2016-05-12T02:56:40.983Z,71.07
2016-05-12T02:57:40.954Z,71.64
2016-05-12T02:58:40.927Z,71.26
2016-05-12T02:59:40.914Z,71.26
2016-05-12T03:00:40.901Z,71.36
2016-05-12T03:01:41.325Z,71.16
2016-05-12T03:02:40.843Z,71.93
2016-05-12T03:03:40.830Z,71.55
2016-05-12T03:04:40.803Z,71.45
2016-05-12T03:05:40.773Z,71.45
2016-05-12T03:06:40.776Z,71.55
2016-05-12T03:07:40.731Z,72.12
2016-05-12T03:08:40.563Z,71.93
2016-05-12T03:09:40.706Z,71.45
2016-05-12T03:10:40.694Z,72.12
2016-05-12T03:11:40.649Z,71.93
2016-05-12T03:12:40.636Z,72.22
2016-05-12T03:13:40.608Z,71.73
2016-05-12T03:14:40.594Z,72.41
2016-05-12T03:15:40.425Z,72.02
2016-05-12T03:16:40.927Z,72.12
2016-05-12T03:17:40.525Z,72.22
2016-05-12T03:18:40.355Z,72.41
2016-05-12T03:19:40.483Z,72.69
2016-05-12T03:20:40.314Z,72.12
2016-05-12T03:21:40.441Z,72.12
2016-05-12T03:22:40.412Z,72.41
2016-05-12T03:23:40.415Z,72.41
2016-05-12T03:24:40.371Z,72.6
2016-05-12T03:25:40.359Z,72.12
2016-05-12T03:26:40.329Z,72.12
2016-05-12T03:27:40.160Z,72.41
2016-05-12T03:28:40.288Z,72.31
2016-05-12T03:29:40.275Z,72.79
2016-05-12T03:30:40.262Z,72.79
2016-05-12T03:31:40.343Z,73.36
2016-05-12T03:32:40.206Z,72.88
2016-05-12T03:33:40.192Z,72.79
2016-05-12T03:34:40.164Z,73.36
2016-05-12T03:35:40.150Z,73.55
2016-05-12T03:36:40.122Z,72.98
2016-05-12T03:37:40.094Z,73.08
2016-05-12T03:38:39.925Z,73.27
2016-05-12T03:39:39.912Z,72.12
2016-05-12T03:40:40.039Z,72.6
2016-05-12T03:41:40.010Z,72.31
2016-05-12T03:42:39.997Z,72.31
2016-05-12T03:43:39.969Z,72.5
2016-05-12T03:44:39.800Z,72.5
2016-05-12T03:45:39.927Z,72.22
2016-05-12T03:46:39.915Z,72.31
2016-05-12T03:47:39.730Z,72.41
2016-05-12T03:48:39.717Z,72.12
2016-05-12T03:49:39.844Z,72.5
2016-05-12T03:50:39.816Z,72.6
2016-05-12T03:51:39.647Z,72.69
2016-05-12T03:52:39.791Z,71.83
2016-05-12T03:53:39.762Z,72.41
2016-05-12T03:54:39.733Z,72.34
2016-05-12T03:55:39.720Z,72.25
2016-05-12T03:56:39.707Z,72.34
2016-05-12T03:57:39.679Z,72.16
2016-05-12T03:58:39.666Z,71.97
2016-05-12T03:59:39.638Z,71.97
2016-05-12T04:00:39.609Z,72.16
2016-05-12T04:01:40.159Z,72.06
2016-05-12T04:02:39.567Z,72.54
2016-05-12T04:03:39.554Z,72.16
2016-05-12T04:04:39.370Z,72.34
2016-05-12T04:05:39.513Z,73.02
2016-05-12T04:06:39.484Z,72.79
2016-05-12T04:07:39.472Z,73.21
2016-05-12T04:08:39.442Z,72.22
2016-05-12T04:09:39.430Z,72.16
2016-05-12T04:10:39.401Z,71.58
2016-05-12T04:11:39.373Z,70.95
2016-05-12T04:12:39.375Z,70.47
2016-05-12T04:13:39.331Z,69.89
2016-05-12T04:14:39.161Z,70.56
2016-05-12T04:15:39.289Z,70.37
2016-05-12T04:16:39.433Z,71.23
2016-05-12T04:17:39.248Z,71.52
2016-05-12T04:18:39.236Z,72.06
2016-05-12T04:19:39.207Z,72.16
2016-05-12T04:20:39.194Z,72
2016-05-12T04:21:39.165Z,71.81
2016-05-12T04:22:39.137Z,71.58
2016-05-12T04:23:39.123Z,70.95
2016-05-12T04:24:39.110Z,69.51
2016-05-12T04:25:39.082Z,70.41
2016-05-12T04:26:39.069Z,70.03
2016-05-12T04:27:39.038Z,69.45
2016-05-12T04:28:39.025Z,69.64
2016-05-12T04:29:38.996Z,70.66
2016-05-12T04:30:38.984Z,71.14
2016-05-12T04:31:38.893Z,71.14
2016-05-12T04:32:38.770Z,71.04
2016-05-12T04:33:38.929Z,71.33
2016-05-12T04:34:38.901Z,71.42
2016-05-12T04:35:38.715Z,71.33
2016-05-12T04:36:38.859Z,71.71
2016-05-12T04:37:38.830Z,71.52
2016-05-12T04:38:38.818Z,71.52
2016-05-12T04:39:38.790Z,71.04
2016-05-12T04:40:38.776Z,69.89
2016-05-12T04:41:38.763Z,70.09
2016-05-12T04:42:38.734Z,70.47
2016-05-12T04:43:38.721Z,69.89
2016-05-12T04:44:38.694Z,69.26
2016-05-12T04:45:38.681Z,69.74
2016-05-12T04:46:38.667Z,70.03
2016-05-12T04:47:38.639Z,68.97
2016-05-12T04:48:38.610Z,68.21
2016-05-12T04:49:38.597Z,68.14
2016-05-12T04:50:38.568Z,67.76
2016-05-12T04:51:38.556Z,67.57
2016-05-12T04:52:38.527Z,67.76
2016-05-12T04:53:38.514Z,68.33
2016-05-12T04:54:38.485Z,68.62
2016-05-12T04:55:38.316Z,68.62
2016-05-12T04:56:38.444Z,69.01
2016-05-12T04:57:38.432Z,69.26
2016-05-12T04:58:38.402Z,68.4
2016-05-12T04:59:38.390Z,68.87
2016-05-12T05:00:38.362Z,69.26
2016-05-12T05:01:38.551Z,68.78
2016-05-12T05:02:38.320Z,69.54
2016-05-12T05:03:38.306Z,69.26
2016-05-12T05:04:38.138Z,69.17
2016-05-12T05:05:38.281Z,68.78
2016-05-12T05:06:38.253Z,68.68
2016-05-12T05:07:38.224Z,68.49
2016-05-12T05:08:38.211Z,69.35
2016-05-12T05:09:38.182Z,69.74
2016-05-12T05:10:38.013Z,69.93
2016-05-12T05:11:43.300Z,68.59
2016-05-12T05:12:38.128Z,68.4
2016-05-12T05:13:38.115Z,68.3
2016-05-12T05:14:37.930Z,68.68
2016-05-12T05:15:38.073Z,69.07
2016-05-12T05:16:38.060Z,69.17
2016-05-12T05:17:38.032Z,68.87
2016-05-12T05:18:38.003Z,68.59
2016-05-12T05:19:37.834Z,67.91
2016-05-12T05:20:37.977Z,68.91
2016-05-12T05:21:37.949Z,68.14
2016-05-12T05:22:37.921Z,67.85
2016-05-12T05:23:37.751Z,68.43
2016-05-12T05:24:37.739Z,67.18
2016-05-12T05:25:37.866Z,67.38
2016-05-12T05:26:37.853Z,67.76
2016-05-12T05:27:37.824Z,67.66
2016-05-12T05:28:37.812Z,66.51
2016-05-12T05:29:37.782Z,67.09
2016-05-12T05:30:37.770Z,66.8
2016-05-12T05:31:37.616Z,66.71
2016-05-12T05:32:37.729Z,66.8
2016-05-12T05:33:37.700Z,65.08
2016-05-12T05:34:37.687Z,64.98
2016-05-12T05:35:37.674Z,65.65
2016-05-12T05:36:37.645Z,65.49
2016-05-12T05:37:37.617Z,64.63
2016-05-12T05:38:37.447Z,64.72
2016-05-12T05:39:37.435Z,65.01
2016-05-12T05:40:37.423Z,65.59
2016-05-12T05:41:37.565Z,65.97
2016-05-12T05:42:37.537Z,66.16
2016-05-12T05:43:37.508Z,64.53
2016-05-12T05:44:37.494Z,65.49
2016-05-12T05:45:37.467Z,64.05
2016-05-12T05:46:37.453Z,63.86
2016-05-12T05:47:37.425Z,63.48
2016-05-12T05:48:37.412Z,63.09
2016-05-12T05:49:37.399Z,63.7
2016-05-12T05:50:37.386Z,62.62
2016-05-12T05:51:37.358Z,63.12
2016-05-12T05:52:37.344Z,63.51
2016-05-12T05:53:37.316Z,63.12
2016-05-12T05:54:37.146Z,63.32
2016-05-12T05:55:37.274Z,62.84
2016-05-12T05:56:37.263Z,61.4
2016-05-12T05:57:37.249Z,61.21
2016-05-12T05:58:37.220Z,62.74
2016-05-12T05:59:37.207Z,62.93
2016-05-12T06:00:37.179Z,62.48
2016-05-12T06:01:37.197Z,61.69
2016-05-12T06:02:37.153Z,61.78
2016-05-12T06:03:37.124Z,61.88
2016-05-12T06:04:37.096Z,61.21
2016-05-12T06:05:36.927Z,61.05
2016-05-12T06:06:37.070Z,60.38
2016-05-12T06:07:37.042Z,60.28
2016-05-12T06:08:37.028Z,59.7
2016-05-12T06:09:37.015Z,59.41
2016-05-12T06:10:36.986Z,60.28
2016-05-12T06:11:36.959Z,59.41
2016-05-12T06:12:36.945Z,59.92
2016-05-12T06:13:36.933Z,59.64
2016-05-12T06:14:36.903Z,59.54
2016-05-12T06:15:36.891Z,59.64
2016-05-12T06:16:36.737Z,59.25
2016-05-12T06:17:36.865Z,57.9
2016-05-12T06:18:36.836Z,58.39
2016-05-12T06:19:36.808Z,59.34
2016-05-12T06:20:36.795Z,59.44
2016-05-12T06:21:36.782Z,59.19
2016-05-12T06:22:36.753Z,58.03
2016-05-12T06:23:36.741Z,56.98
2016-05-12T06:24:36.727Z,55.91
2016-05-12T06:25:36.699Z,56.78
2016-05-12T06:26:36.686Z,56.11
2016-05-12T06:27:36.674Z,57.07
2016-05-12T06:28:36.644Z,55.85
2016-05-12T06:29:36.647Z,55.76
2016-05-12T06:30:36.635Z,55.76
2016-05-12T06:31:36.449Z,55.85
2016-05-12T06:32:36.577Z,53.45
2016-05-12T06:33:36.548Z,53.83
2016-05-12T06:34:36.552Z,53.25
2016-05-12T06:35:36.523Z,53.54
2016-05-12T06:36:36.353Z,52.99
2016-05-12T06:37:36.482Z,52.32
2016-05-12T06:38:36.468Z,51.84
2016-05-12T06:39:36.440Z,51.74
2016-05-12T06:40:36.427Z,49.94
2016-05-12T06:41:36.415Z,50.15
2016-05-12T06:42:36.401Z,48.54
2016-05-12T06:43:36.404Z,45.68
2016-05-12T06:44:36.359Z,44.37
2016-05-12T06:45:36.347Z,43.33
2016-05-12T06:46:36.740Z,41.73
2016-05-12T06:47:36.164Z,39.24
2016-05-12T06:48:36.167Z,38.18
2016-05-12T06:49:36.294Z,38.48
2016-05-12T06:50:36.325Z,37.71
2016-05-12T06:51:36.371Z,37.42
2016-05-12T06:52:36.384Z,36.36
2016-05-12T06:53:36.399Z,36
2016-05-12T06:54:36.445Z,36.22
2016-05-12T06:55:36.432Z,34.8
2016-05-12T06:56:36.435Z,33.36
2016-05-12T06:57:36.452Z,33.09
2016-05-12T06:58:36.439Z,32.31
2016-05-12T06:59:36.457Z,31.84
2016-05-12T07:00:36.449Z,31.08
2016-05-12T07:01:36.521Z,29.83
2016-05-12T07:02:36.450Z,30.01
2016-05-12T07:03:36.427Z,29.74
2016-05-12T07:04:36.434Z,28.45
2016-05-12T07:05:36.424Z,28.86
2016-05-12T07:06:36.413Z,27.7
2016-05-12T07:07:36.246Z,28.7
2016-05-12T07:08:36.391Z,28.59
2016-05-12T07:09:36.380Z,29.93
2016-05-12T07:10:36.384Z,29.05
2016-05-12T07:11:36.372Z,28.49
2016-05-12T07:12:36.359Z,27.34
2016-05-12T07:13:36.346Z,27.53
2016-05-12T07:14:36.335Z,27.61
2016-05-12T07:15:36.338Z,28.02
2016-05-12T07:16:36.591Z,27.61
2016-05-12T07:17:36.328Z,27.03
2016-05-12T07:18:36.316Z,27.9
2016-05-12T07:19:36.287Z,27.51
2016-05-12T07:20:36.290Z,27.43
2016-05-12T07:21:36.292Z,25.6
2016-05-12T07:22:36.280Z,24.94
2016-05-12T07:23:36.267Z,25.25
2016-05-12T07:24:36.254Z,25.13
2016-05-12T07:25:36.242Z,25.49
2016-05-12T07:26:36.088Z,25.98
2016-05-12T07:27:36.230Z,25.79
2016-05-12T07:28:36.219Z,25.8
2016-05-12T07:29:36.221Z,24.84
2016-05-12T07:30:36.208Z,24.85
2016-05-12T07:31:36.461Z,25.34
2016-05-12T07:32:36.416Z,25.82
2016-05-12T07:33:36.185Z,25.02
2016-05-12T07:34:36.188Z,25.8
2016-05-12T07:35:36.174Z,25.9
2016-05-12T07:36:36.161Z,25.02
2016-05-12T07:37:36.164Z,25.14
2016-05-12T07:38:36.151Z,25.32
2016-05-12T07:39:36.154Z,25.23
2016-05-12T07:40:36.141Z,25.82
2016-05-12T07:41:36.129Z,24.87
2016-05-12T07:42:36.115Z,24.38
2016-05-12T07:43:36.134Z,23.69
2016-05-12T07:44:36.104Z,24.28
2016-05-12T07:45:36.108Z,25.25
2016-05-12T07:46:36.095Z,24.65
2016-05-12T07:47:36.098Z,23.99
2016-05-12T07:48:36.084Z,24.56
2016-05-12T07:49:36.071Z,25.34
2016-05-12T07:50:35.918Z,26.1
2016-05-12T07:51:36.076Z,25.51
2016-05-12T07:52:36.049Z,24.26
2016-05-12T07:53:36.051Z,24.45
2016-05-12T07:54:36.039Z,23.8
2016-05-12T07:55:36.041Z,23.3
2016-05-12T07:56:35.887Z,23.32
2016-05-12T07:57:36.031Z,23.03
2016-05-12T07:58:36.017Z,23.22
2016-05-12T07:59:36.020Z,23.32
2016-05-12T08:00:36.007Z,23.33
2016-05-12T08:01:36.353Z,23.8
2016-05-12T08:02:35.997Z,22.84
2016-05-12T08:03:36.016Z,21.97
2016-05-12T08:04:35.986Z,21.98
2016-05-12T08:05:35.989Z,22.07
2016-05-12T08:06:35.977Z,23.23
2016-05-12T08:07:35.980Z,22.16
2016-05-12T08:08:35.966Z,22.74
2016-05-12T08:09:35.953Z,23.14
2016-05-12T08:10:35.957Z,22.85
2016-05-12T08:11:35.960Z,20.8
2016-05-12T08:12:35.946Z,20.53
2016-05-12T08:13:35.933Z,20.72
2016-05-12T08:14:35.779Z,21.88
2016-05-12T08:15:35.938Z,22.17
2016-05-12T08:16:35.769Z,22.75
2016-05-12T08:17:35.912Z,22.92
2016-05-12T08:18:35.916Z,22.06
2016-05-12T08:19:35.918Z,21.88
2016-05-12T08:20:35.748Z,21.77
2016-05-12T08:21:35.893Z,21.96
2016-05-12T08:22:35.895Z,21.57
2016-05-12T08:23:35.881Z,21.39
2016-05-12T08:24:35.728Z,21.78
2016-05-12T08:25:35.715Z,22.27
2016-05-12T08:26:35.874Z,21.96
2016-05-12T08:27:35.861Z,21.29
2016-05-12T08:28:35.864Z,20.72
2016-05-12T08:29:35.850Z,21.39
2016-05-12T08:30:35.853Z,22.06
2016-05-12T08:31:35.856Z,21.77
2016-05-12T08:32:35.703Z,21.19
2016-05-12T08:33:35.831Z,21
2016-05-12T08:34:35.834Z,20.53
2016-05-12T08:35:35.664Z,21.69
2016-05-12T08:36:35.823Z,21.7
2016-05-12T08:37:35.810Z,21.68
2016-05-12T08:38:35.813Z,20.7
2016-05-12T08:39:35.660Z,20.72
2016-05-12T08:40:35.802Z,22.08
2016-05-12T08:41:35.790Z,22.66
2016-05-12T08:42:35.792Z,21.96
2016-05-12T08:43:35.779Z,21.77
2016-05-12T08:44:35.782Z,21.48
2016-05-12T08:45:35.769Z,21.97
2016-05-12T08:46:35.631Z,22.84
2016-05-12T08:47:35.759Z,23.78
2016-05-12T08:48:35.762Z,23.49
2016-05-12T08:49:35.748Z,23.02
2016-05-12T08:50:35.735Z,24.48
2016-05-12T08:51:35.738Z,24.45
2016-05-12T08:52:35.740Z,25.71
2016-05-12T08:53:35.728Z,25.8
2016-05-12T08:54:35.715Z,25.13
2016-05-12T08:55:35.702Z,25.53
2016-05-12T08:56:35.706Z,27.64
2016-05-12T08:57:35.708Z,28.88
2016-05-12T08:58:35.694Z,29.93
2016-05-12T08:59:35.682Z,30.85
2016-05-12T09:00:35.669Z,30.92
2016-05-12T09:01:35.655Z,32.09
2016-05-12T09:02:35.643Z,33.44
2016-05-12T09:03:35.630Z,33.34
2016-05-12T09:04:35.633Z,34.47
2016-05-12T09:05:35.619Z,35.44
2016-05-12T09:06:35.607Z,34.75
2016-05-12T09:07:35.594Z,36.3
2016-05-12T09:08:35.580Z,36.4
2016-05-12T09:09:35.583Z,35.99
2016-05-12T09:10:35.555Z,36.28
2016-05-12T09:11:35.558Z,36.28
2016-05-12T09:12:35.529Z,36.26
2016-05-12T09:13:35.516Z,38.1
2016-05-12T09:14:35.503Z,37.13
2016-05-12T09:15:35.491Z,37.9
2016-05-12T09:16:35.337Z,39.26
2016-05-12T09:17:35.465Z,38.68
2016-05-12T09:18:35.452Z,37.81
2016-05-12T09:19:35.438Z,38.48
2016-05-12T09:20:35.270Z,38.2
2016-05-12T09:21:35.413Z,38.46
2016-05-12T09:22:35.400Z,38.46
2016-05-12T09:23:35.387Z,38.08
2016-05-12T09:24:35.373Z,38.66
2016-05-12T09:25:35.361Z,39.04
2016-05-12T09:26:35.348Z,38.76
2016-05-12T09:27:35.334Z,38.28
2016-05-12T09:28:35.322Z,37.9
2016-05-12T09:29:35.309Z,39.14
2016-05-12T09:30:35.281Z,38.18
2016-05-12T09:31:35.283Z,38.56
2016-05-12T09:32:35.270Z,38.66
2016-05-12T09:33:35.242Z,38.58
2016-05-12T09:34:35.228Z,39.04
2016-05-12T09:35:35.216Z,37.98
2016-05-12T09:36:35.203Z,39.62
2016-05-12T09:37:35.191Z,38.66
2016-05-12T09:38:35.177Z,37.88
2016-05-12T09:39:35.164Z,38.08
2016-05-12T09:40:35.167Z,38.08
2016-05-12T09:41:35.122Z,37.98
2016-05-12T09:42:35.125Z,39.04
2016-05-12T09:43:35.096Z,38.46
2016-05-12T09:44:35.099Z,39.24
2016-05-12T09:45:34.915Z,39.14
2016-05-12T09:46:35.073Z,39.92
2016-05-12T09:47:35.046Z,40.69
2016-05-12T09:48:35.032Z,39.82
2016-05-12T09:49:34.848Z,41.08
2016-05-12T09:50:34.835Z,40.59
2016-05-12T09:51:34.978Z,40.5
2016-05-12T09:52:34.965Z,40.4
2016-05-12T09:53:34.967Z,39.24
2016-05-12T09:54:34.954Z,39.43
2016-05-12T09:55:34.910Z,40.3
2016-05-12T09:56:34.913Z,39.82
2016-05-12T09:57:34.900Z,40.98
2016-05-12T09:58:34.887Z,39.04
2016-05-12T09:59:34.858Z,38.66
2016-05-12T10:00:34.720Z,38.46
2016-05-12T10:01:34.848Z,39.62
2016-05-12T10:02:34.819Z,39.53
2016-05-12T10:03:34.807Z,38.37
2016-05-12T10:04:34.795Z,39.04
2016-05-12T10:05:34.781Z,40.59
2016-05-12T10:06:34.769Z,42.83
2016-05-12T10:07:34.755Z,41.97
2016-05-12T10:08:34.742Z,40.61
2016-05-12T10:09:34.714Z,39.16
2016-05-12T10:10:34.700Z,39.36
2016-05-12T10:11:34.688Z,41.17
2016-05-12T10:12:34.674Z,40.42
2016-05-12T10:13:34.662Z,40.81
2016-05-12T10:14:34.493Z,39.72
2016-05-12T10:15:34.620Z,40.71
2016-05-12T10:16:34.873Z,41.09
2016-05-12T10:17:34.626Z,39.74
2016-05-12T10:18:34.597Z,39.72
2016-05-12T10:19:34.585Z,40.81
2016-05-12T10:20:34.556Z,39.64
2016-05-12T10:21:34.543Z,39.16
2016-05-12T10:22:34.529Z,39.37
2016-05-12T10:23:34.518Z,39.37
2016-05-12T10:24:34.504Z,40.73
2016-05-12T10:25:34.491Z,39.28
2016-05-12T10:26:34.478Z,39.86
2016-05-12T10:27:34.465Z,39.95
2016-05-12T10:28:34.453Z,37.92
2016-05-12T10:29:34.439Z,39.67
2016-05-12T10:30:34.411Z,38.41
2016-05-12T10:31:34.256Z,40.71
2016-05-12T10:32:34.244Z,40.13
2016-05-12T10:33:34.373Z,41.29
2016-05-12T10:34:34.358Z,42.07
2016-05-12T10:35:34.346Z,38.79
2016-05-12T10:36:34.333Z,38.7
2016-05-12T10:37:34.320Z,39.74
2016-05-12T10:38:34.292Z,38.7
2016-05-12T10:39:34.278Z,39.84
2016-05-12T10:40:34.281Z,38.97
2016-05-12T10:41:34.268Z,39.16
2016-05-12T10:42:34.099Z,38.87
2016-05-12T10:43:34.227Z,39.45
2016-05-12T10:44:34.214Z,39.26
2016-05-12T10:45:34.201Z,39.64
2016-05-12T10:46:34.188Z,39.06
2016-05-12T10:47:34.175Z,39.16
2016-05-12T10:48:34.163Z,39.45
2016-05-12T10:49:34.134Z,40.32
2016-05-12T10:50:34.120Z,39.16
2016-05-12T10:51:34.124Z,38.68
2016-05-12T10:52:33.939Z,39.26
2016-05-12T10:53:34.082Z,40.42
2016-05-12T10:54:33.913Z,41.67
2016-05-12T10:55:33.900Z,41.58
2016-05-12T10:56:34.043Z,40.61
2016-05-12T10:57:34.031Z,41
2016-05-12T10:58:34.018Z,43.34
2016-05-12T10:59:34.004Z,42.47
2016-05-12T11:00:33.991Z,41.02
2016-05-12T11:01:33.916Z,39.28
2016-05-12T11:02:33.951Z,40.73
2016-05-12T11:03:33.952Z,40.25
2016-05-12T11:04:33.939Z,39.28
2016-05-12T11:05:33.911Z,39.37
2016-05-12T11:06:33.758Z,41.5
2016-05-12T11:07:33.886Z,41.31
2016-05-12T11:08:33.873Z,40.83
2016-05-12T11:09:33.858Z,41.02
2016-05-12T11:10:33.878Z,39.95
2016-05-12T11:11:33.834Z,41.99
2016-05-12T11:12:33.805Z,42.76
2016-05-12T11:13:33.792Z,41.21
2016-05-12T11:14:33.779Z,42.18
2016-05-12T11:15:33.625Z,40.63
2016-05-12T11:16:34.644Z,40.63
2016-05-12T11:17:33.740Z,40.63
2016-05-12T11:18:33.727Z,38.6
2016-05-12T11:19:33.730Z,39.28
2016-05-12T11:20:33.545Z,39.95
2016-05-12T11:21:33.688Z,39.09
2016-05-12T11:22:33.519Z,40.52
2016-05-12T11:23:33.646Z,40.32
2016-05-12T11:24:33.649Z,41.09
2016-05-12T11:25:33.637Z,41.67
2016-05-12T11:26:33.624Z,40.92
2016-05-12T11:27:33.595Z,38.48
2016-05-12T11:28:33.598Z,38.28
2016-05-12T11:29:33.570Z,38.78
2016-05-12T11:30:33.573Z,39.64
2016-05-12T11:31:33.559Z,41.48
2016-05-12T11:32:33.530Z,41.79
2016-05-12T11:33:33.518Z,40.53
2016-05-12T11:34:33.505Z,40.44
2016-05-12T11:35:33.491Z,39.47
2016-05-12T11:36:33.479Z,37.92
2016-05-12T11:37:33.450Z,39.57
2016-05-12T11:38:33.453Z,41.24
2016-05-12T11:39:33.268Z,39.97
2016-05-12T11:40:33.412Z,40.34
2016-05-12T11:41:33.414Z,39.86
2016-05-12T11:42:33.385Z,38.6
2016-05-12T11:43:33.373Z,39.28
2016-05-12T11:44:33.360Z,39.57
2016-05-12T11:45:33.347Z,39.18
2016-05-12T11:46:33.350Z,38.12
2016-05-12T11:47:33.321Z,37.73
2016-05-12T11:48:33.308Z,37.65
2016-05-12T11:49:33.295Z,38.23
2016-05-12T11:50:33.283Z,38.53
2016-05-12T11:51:33.269Z,39.03
2016-05-12T11:52:33.240Z,38.45
2016-05-12T11:53:33.227Z,37.09
2016-05-12T11:54:33.215Z,38.15
2016-05-12T11:55:33.202Z,38.64
2016-05-12T11:56:33.189Z,37.87
2016-05-12T11:57:33.020Z,37.09
2016-05-12T11:58:33.163Z,36.9
2016-05-12T11:59:33.150Z,36.52
2016-05-12T12:00:33.153Z,36.14
2016-05-12T12:01:32.968Z,37.09
2016-05-12T12:02:33.096Z,35.64
2016-05-12T12:03:33.099Z,36.12
2016-05-12T12:04:33.086Z,35.93
2016-05-12T12:05:33.088Z,36.8
2016-05-12T12:06:33.059Z,36.2
2016-05-12T12:07:33.031Z,35.91
2016-05-12T12:08:33.017Z,37.07
2016-05-12T12:09:32.850Z,36.78
2016-05-12T12:10:32.992Z,35.81
2016-05-12T12:11:32.979Z,36.2
2016-05-12T12:12:32.825Z,37.19
2016-05-12T12:13:32.953Z,36.58
2016-05-12T12:14:32.940Z,37.55
2016-05-12T12:15:32.927Z,36.9
2016-05-12T12:16:32.758Z,36.51
2016-05-12T12:17:32.902Z,38.06
2016-05-12T12:18:32.889Z,38.06
2016-05-12T12:19:32.860Z,36.99
2016-05-12T12:20:32.707Z,36.22
2016-05-12T12:21:32.849Z,36.8
2016-05-12T12:22:32.838Z,36.02
2016-05-12T12:23:32.683Z,36.02
2016-05-12T12:24:32.811Z,35.64
2016-05-12T12:25:32.782Z,35.85
2016-05-12T12:26:32.770Z,34.97
2016-05-12T12:27:32.773Z,34.59
2016-05-12T12:28:32.743Z,35.75
2016-05-12T12:29:32.731Z,34.77
2016-05-12T12:30:32.733Z,34.49
2016-05-12T12:31:32.845Z,34.38
2016-05-12T12:32:32.693Z,34.19
2016-05-12T12:33:32.679Z,34.47
2016-05-12T12:34:32.697Z,34.38
2016-05-12T12:35:32.653Z,33.81
2016-05-12T12:36:32.656Z,33.81
2016-05-12T12:37:32.471Z,34.2
2016-05-12T12:38:32.771Z,33.33
2016-05-12T12:39:32.601Z,33.62
2016-05-12T12:40:32.589Z,34.11
2016-05-12T12:41:32.576Z,34.11
2016-05-12T12:42:32.406Z,33.14
2016-05-12T12:43:32.550Z,33.06
2016-05-12T12:44:32.536Z,32.37
2016-05-12T12:45:32.508Z,34.22
2016-05-12T12:46:32.511Z,34.61
2016-05-12T12:47:32.497Z,33.42
2016-05-12T12:48:32.485Z,33.7
2016-05-12T12:49:32.456Z,34.2
2016-05-12T12:50:32.460Z,34.09
2016-05-12T12:51:32.430Z,34.28
2016-05-12T12:52:32.433Z,34.28
2016-05-12T12:53:32.421Z,34.47
2016-05-12T12:54:32.391Z,34.09
2016-05-12T12:55:32.394Z,34.49
2016-05-12T12:56:32.382Z,35.27